Time;durP1;ratioP1;P1;durP2;ratioP2;P2;SDS_P1;SDS_P2;PMS_P1;PMS_P2;Temp;Humidity;BMP_temperature;BMP_pressure;BME280_temperature;BME280_humidity;BME280_pressure;Samples;Min_cycle;Max_cycle;Signal;HPM_P1;HPM_P2
2023/05/18 00:00:34;;;;;;;2.42;0.75;;;;;;;;;;5062735;28;20598;-61
2023/05/18 00:03:02;;;;;;;2.40;1.58;;;;;;;;;;5061794;28;20052;-62
2023/05/18 00:05:32;;;;;;;1.73;0.90;;;;;;;;;;5062561;28;20102;-65
2023/05/18 00:08:01;;;;;;;3.55;0.88;;;;;;;;;;5062819;28;20037;-61
2023/05/18 00:10:30;;;;;;;3.42;0.95;;;;;;;;;;5062560;28;20110;-62
2023/05/18 00:12:58;;;;;;;3.08;1.00;;;;;;;;;;5065386;28;21342;-61
2023/05/18 00:15:27;;;;;;;3.70;0.80;;;;;;;;;;5064741;28;20052;-63
2023/05/18 00:17:55;;;;;;;5.65;0.90;;;;;;;;;;5062471;28;20545;-64
2023/05/18 00:20:25;;;;;;;2.47;0.65;;;;;;;;;;5062540;28;20409;-62
2023/05/18 00:22:55;;;;;;;1.83;1.20;;;;;;;;;;5064128;28;20048;-61
2023/05/18 00:25:24;;;;;;;3.30;1.48;;;;;;;;;;5064151;28;20479;-61
2023/05/18 00:27:52;;;;;;;1.23;1.08;;;;;;;;;;5061900;28;20044;-61
2023/05/18 00:30:22;;;;;;;5.88;1.05;;;;;;;;;;5067380;28;20052;-61
2023/05/18 00:32:51;;;;;;;2.10;0.75;;;;;;;;;;5061613;28;20052;-61
2023/05/18 00:35:19;;;;;;;0.85;0.50;;;;;;;;;;5062148;28;20102;-62
2023/05/18 00:37:48;;;;;;;3.20;1.40;;;;;;;;;;5062292;28;20060;-65
2023/05/18 00:40:18;;;;;;;2.60;0.85;;;;;;;;;;5063734;28;20101;-61
2023/05/18 00:42:47;;;;;;;2.78;1.50;;;;;;;;;;5059915;28;20333;-62
2023/05/18 00:45:15;;;;;;;3.60;0.93;;;;;;;;;;5062925;28;20080;-60
2023/05/18 00:47:43;;;;;;;1.10;0.68;;;;;;;;;;5065516;28;20048;-61
2023/05/18 00:50:12;;;;;;;2.40;0.73;;;;;;;;;;5063933;28;20080;-62
2023/05/18 00:52:41;;;;;;;2.63;1.15;;;;;;;;;;5060278;28;20554;-65
2023/05/18 00:55:11;;;;;;;3.67;1.48;;;;;;;;;;5059638;28;20076;-62
2023/05/18 00:57:44;;;;;;;2.03;0.95;;;;;;;;;;5064071;28;20109;-62
2023/05/18 01:00:13;;;;;;;1.20;0.88;;;;;;;;;;5064637;28;20044;-62
2023/05/18 01:02:44;;;;;;;5.68;1.08;;;;;;;;;;5059890;28;20110;-60
2023/05/18 01:05:13;;;;;;;2.35;1.45;;;;;;;;;;5100714;23;20068;-62
2023/05/18 01:07:42;;;;;;;1.85;0.68;;;;;;;;;;5093487;28;20044;-63
2023/05/18 01:10:11;;;;;;;0.85;0.85;;;;;;;;;;5094128;28;20102;-61
2023/05/18 01:12:43;;;;;;;2.15;1.35;;;;;;;;;;5094466;28;20083;-61
2023/05/18 01:15:15;;;;;;;5.72;2.55;;;;;;;;;;5094345;28;20051;-61
2023/05/18 01:17:48;;;;;;;1.00;0.75;;;;;;;;;;5094166;28;20048;-62
2023/05/18 01:20:19;;;;;;;4.05;0.93;;;;;;;;;;5094613;28;20074;-61
2023/05/18 01:22:51;;;;;;;6.18;1.05;;;;;;;;;;5094685;28;20048;-61
2023/05/18 01:25:28;;;;;;;2.55;1.33;;;;;;;;;;5093467;28;20106;-62
2023/05/18 01:28:04;;;;;;;0.98;0.63;;;;;;;;;;5094268;28;20130;-60
2023/05/18 01:30:34;;;;;;;2.60;0.70;;;;;;;;;;5093354;28;20083;-63
2023/05/18 01:33:07;;;;;;;1.90;1.13;;;;;;;;;;5082175;28;20516;-60
2023/05/18 01:35:36;;;;;;;1.45;1.10;;;;;;;;;;5079943;28;20056;-62
2023/05/18 01:38:04;;;;;;;3.08;0.98;;;;;;;;;;5082479;28;20064;-61
2023/05/18 01:40:35;;;;;;;4.25;0.65;;;;;;;;;;5078570;28;20043;-61
2023/05/18 01:43:10;;;;;;;1.17;0.85;;;;;;;;;;5079146;28;20056;-59
2023/05/18 01:45:40;;;;;;;7.28;1.00;;;;;;;;;;5076146;28;20481;-59
2023/05/18 01:48:10;;;;;;;3.70;0.88;;;;;;;;;;5078511;28;20075;-65
2023/05/18 01:50:42;;;;;;;0.85;0.47;;;;;;;;;;5079027;28;20044;-61
2023/05/18 01:53:13;;;;;;;6.53;1.08;;;;;;;;;;5080728;28;20056;-61
2023/05/18 01:55:42;;;;;;;1.25;0.68;;;;;;;;;;5082007;28;20043;-61
2023/05/18 01:58:13;;;;;;;3.15;0.82;;;;;;;;;;5082017;28;20660;-60
2023/05/18 02:00:41;;;;;;;3.78;1.02;;;;;;;;;;5079398;28;20036;-61
2023/05/18 02:03:10;;;;;;;4.25;1.20;;;;;;;;;;5080565;28;20484;-62
2023/05/18 02:05:38;;;;;;;1.48;0.80;;;;;;;;;;5076507;28;20752;-60
2023/05/18 02:08:07;;;;;;;1.55;0.65;;;;;;;;;;5082291;28;20051;-61
2023/05/18 02:10:35;;;;;;;2.33;1.00;;;;;;;;;;5079239;28;20531;-60
2023/05/18 02:13:03;;;;;;;8.65;0.85;;;;;;;;;;5082843;28;20109;-61
2023/05/18 02:15:33;;;;;;;0.63;0.63;;;;;;;;;;5079238;28;20048;-61
2023/05/18 02:18:02;;;;;;;5.45;1.08;;;;;;;;;;5080618;28;20380;-65
2023/05/18 02:20:32;;;;;;;1.83;0.70;;;;;;;;;;5079856;28;20079;-63
2023/05/18 02:23:00;;;;;;;3.60;0.95;;;;;;;;;;5081731;28;20048;-61
2023/05/18 02:25:29;;;;;;;0.80;0.70;;;;;;;;;;5078765;28;20142;-62
2023/05/18 02:27:58;;;;;;;2.95;1.20;;;;;;;;;;5083383;28;20177;-61
2023/05/18 02:30:26;;;;;;;2.25;0.90;;;;;;;;;;5085619;28;20078;-64
2023/05/18 02:32:56;;;;;;;3.45;1.08;;;;;;;;;;5081799;28;20105;-60
2023/05/18 02:35:24;;;;;;;2.08;1.13;;;;;;;;;;5079941;28;20052;-60
2023/05/18 02:37:54;;;;;;;2.13;1.30;;;;;;;;;;5083668;28;20094;-60
2023/05/18 02:40:23;;;;;;;1.73;0.77;;;;;;;;;;5075618;28;20423;-60
2023/05/18 02:42:51;;;;;;;1.75;1.05;;;;;;;;;;5085141;28;20055;-61
2023/05/18 02:45:20;;;;;;;2.28;1.23;;;;;;;;;;5081716;28;20101;-61
2023/05/18 02:47:48;;;;;;;1.75;1.17;;;;;;;;;;5084373;28;20052;-60
2023/05/18 02:50:18;;;;;;;3.72;2.22;;;;;;;;;;5081139;28;20044;-63
2023/05/18 02:52:48;;;;;;;1.60;0.75;;;;;;;;;;5079982;28;20101;-60
2023/05/18 02:55:17;;;;;;;8.60;0.90;;;;;;;;;;5080543;28;20051;-60
2023/05/18 02:57:47;;;;;;;2.85;1.25;;;;;;;;;;5083389;28;20846;-60
2023/05/18 03:00:16;;;;;;;3.55;1.25;;;;;;;;;;5081945;28;20093;-60
2023/05/18 03:02:47;;;;;;;5.15;1.00;;;;;;;;;;5081711;28;20510;-60
2023/05/18 03:05:17;;;;;;;1.42;0.80;;;;;;;;;;5081315;28;20055;-61
2023/05/18 03:07:49;;;;;;;1.95;0.68;;;;;;;;;;5081800;28;20063;-61
2023/05/18 03:10:18;;;;;;;3.55;0.55;;;;;;;;;;5079891;28;20196;-64
2023/05/18 03:12:47;;;;;;;2.47;1.20;;;;;;;;;;5079914;28;20055;-64
2023/05/18 03:15:18;;;;;;;1.15;0.77;;;;;;;;;;5084010;28;20146;-61
2023/05/18 03:17:46;;;;;;;3.05;1.38;;;;;;;;;;5085013;28;20059;-61
2023/05/18 03:20:15;;;;;;;4.05;1.42;;;;;;;;;;5085745;28;20127;-62
2023/05/18 03:22:43;;;;;;;1.98;1.80;;;;;;;;;;5087712;28;20097;-60
2023/05/18 03:25:13;;;;;;;2.45;0.98;;;;;;;;;;5082496;28;20497;-60
2023/05/18 03:27:42;;;;;;;2.78;0.98;;;;;;;;;;5086117;28;20040;-60
2023/05/18 03:30:11;;;;;;;0.50;0.50;;;;;;;;;;5078921;28;20145;-62
2023/05/18 03:32:40;;;;;;;1.88;1.33;;;;;;;;;;5085196;28;20564;-60
2023/05/18 03:35:09;;;;;;;2.00;1.20;;;;;;;;;;5084946;28;20124;-61
2023/05/18 03:37:37;;;;;;;0.63;0.45;;;;;;;;;;5084187;28;20093;-61
2023/05/18 03:40:10;;;;;;;2.72;1.02;;;;;;;;;;5084054;28;20435;-61
2023/05/18 03:42:41;;;;;;;1.67;1.00;;;;;;;;;;5084726;28;20052;-61
2023/05/18 03:45:09;;;;;;;1.73;1.52;;;;;;;;;;5081173;28;20048;-60
2023/05/18 03:47:39;;;;;;;1.42;0.70;;;;;;;;;;5083451;28;20044;-64
2023/05/18 03:50:07;;;;;;;0.70;0.60;;;;;;;;;;5084063;28;20432;-64
2023/05/18 03:52:36;;;;;;;2.25;0.77;;;;;;;;;;5084029;28;20520;-62
2023/05/18 03:55:05;;;;;;;2.08;1.25;;;;;;;;;;5083748;28;20857;-61
2023/05/18 03:57:33;;;;;;;1.85;0.80;;;;;;;;;;5082832;28;20528;-61
2023/05/18 04:00:07;;;;;;;1.63;1.00;;;;;;;;;;5080194;28;20455;-62
2023/05/18 04:02:36;;;;;;;1.63;0.90;;;;;;;;;;5083699;28;20121;-64
2023/05/18 04:05:05;;;;;;;3.67;1.10;;;;;;;;;;5083591;28;20144;-65
2023/05/18 04:07:33;;;;;;;2.03;1.13;;;;;;;;;;5085587;28;20488;-61
2023/05/18 04:10:01;;;;;;;1.65;0.85;;;;;;;;;;5080268;28;20128;-64
2023/05/18 04:12:30;;;;;;;2.50;1.00;;;;;;;;;;5081923;28;20052;-60
2023/05/18 04:14:59;;;;;;;4.25;1.33;;;;;;;;;;5083194;28;20052;-61
2023/05/18 04:17:29;;;;;;;1.38;1.00;;;;;;;;;;5083938;28;20533;-60
2023/05/18 04:19:57;;;;;;;1.65;1.27;;;;;;;;;;5085229;28;20051;-61
2023/05/18 04:22:28;;;;;;;0.55;0.55;;;;;;;;;;5083109;28;20443;-60
2023/05/18 04:24:57;;;;;;;1.23;0.60;;;;;;;;;;5084744;28;20647;-60
2023/05/18 04:27:25;;;;;;;1.80;1.38;;;;;;;;;;5082819;28;20101;-62
2023/05/18 04:29:53;;;;;;;1.48;1.10;;;;;;;;;;5082432;28;20048;-61
2023/05/18 04:32:25;;;;;;;5.55;1.10;;;;;;;;;;5082392;28;20321;-61
2023/05/18 04:34:57;;;;;;;1.13;0.77;;;;;;;;;;5084754;28;20139;-61
2023/05/18 04:37:25;;;;;;;3.05;0.80;;;;;;;;;;5082531;28;20036;-64
2023/05/18 04:39:54;;;;;;;2.33;1.25;;;;;;;;;;5079976;28;20048;-61
2023/05/18 04:42:22;;;;;;;2.75;1.33;;;;;;;;;;5082077;28;20142;-61
2023/05/18 04:44:51;;;;;;;1.90;1.23;;;;;;;;;;5080681;28;20113;-60
2023/05/18 04:47:20;;;;;;;3.97;1.70;;;;;;;;;;5081911;28;20727;-61
2023/05/18 04:49:51;;;;;;;7.28;1.40;;;;;;;;;;5080012;28;20135;-60
2023/05/18 04:52:20;;;;;;;1.27;1.13;;;;;;;;;;5083289;28;20055;-63
2023/05/18 04:54:49;;;;;;;1.85;1.00;;;;;;;;;;5083590;28;20416;-61
2023/05/18 04:57:18;;;;;;;3.80;0.93;;;;;;;;;;5086716;28;20214;-61
2023/05/18 04:59:46;;;;;;;1.50;1.23;;;;;;;;;;5081302;28;20098;-62
2023/05/18 05:02:16;;;;;;;1.85;1.05;;;;;;;;;;5080813;28;20139;-64
2023/05/18 05:04:45;;;;;;;2.40;0.88;;;;;;;;;;5084284;28;20139;-62
2023/05/18 05:07:13;;;;;;;4.40;1.48;;;;;;;;;;5083472;28;20048;-65
2023/05/18 05:09:43;;;;;;;2.78;1.02;;;;;;;;;;5082336;28;20437;-60
2023/05/18 05:12:11;;;;;;;2.78;1.05;;;;;;;;;;5083804;28;20048;-61
2023/05/18 05:14:40;;;;;;;2.20;1.13;;;;;;;;;;5083276;28;20064;-61
2023/05/18 05:17:11;;;;;;;2.22;1.45;;;;;;;;;;5081471;28;20071;-61
2023/05/18 05:19:41;;;;;;;3.17;1.80;;;;;;;;;;5079359;28;20094;-64
2023/05/18 05:22:09;;;;;;;0.88;0.65;;;;;;;;;;5081865;28;20124;-61
2023/05/18 05:24:37;;;;;;;3.17;1.15;;;;;;;;;;5080832;28;20040;-61
2023/05/18 05:27:07;;;;;;;2.45;1.35;;;;;;;;;;5078430;28;20075;-63
2023/05/18 05:29:36;;;;;;;3.35;1.60;;;;;;;;;;5080692;28;20093;-62
2023/05/18 05:32:04;;;;;;;2.85;1.58;;;;;;;;;;5081199;28;20071;-65
2023/05/18 05:34:33;;;;;;;1.77;1.30;;;;;;;;;;5084805;28;20618;-62
2023/05/18 05:37:01;;;;;;;2.30;1.02;;;;;;;;;;5083637;28;20724;-61
2023/05/18 05:39:30;;;;;;;3.30;1.40;;;;;;;;;;5085504;28;20075;-61
2023/05/18 05:41:58;;;;;;;2.70;1.40;;;;;;;;;;5082313;28;20063;-65
2023/05/18 05:44:28;;;;;;;6.03;1.48;;;;;;;;;;5079752;28;20075;-64
2023/05/18 05:46:56;;;;;;;3.65;0.95;;;;;;;;;;5081347;28;20048;-63
2023/05/18 05:49:25;;;;;;;12.00;1.35;;;;;;;;;;5082457;28;20048;-60
2023/05/18 05:51:53;;;;;;;2.80;1.38;;;;;;;;;;5077510;28;20080;-61
2023/05/18 05:54:21;;;;;;;1.85;1.52;;;;;;;;;;5080816;28;20047;-61
2023/05/18 05:56:50;;;;;;;4.57;1.15;;;;;;;;;;5080111;28;20129;-61
2023/05/18 05:59:18;;;;;;;3.45;1.05;;;;;;;;;;5075964;28;20082;-61
2023/05/18 06:01:48;;;;;;;6.32;1.88;;;;;;;;;;5077875;28;20319;-64
2023/05/18 06:04:17;;;;;;;2.70;1.58;;;;;;;;;;5079170;28;20047;-61
2023/05/18 06:06:46;;;;;;;1.30;0.85;;;;;;;;;;5080098;28;20052;-64
2023/05/18 06:09:14;;;;;;;4.82;1.33;;;;;;;;;;5083397;28;20052;-61
2023/05/18 06:11:43;;;;;;;2.33;1.23;;;;;;;;;;5072315;28;20180;-60
2023/05/18 06:14:11;;;;;;;1.95;1.27;;;;;;;;;;5082745;28;20471;-61
2023/05/18 06:16:40;;;;;;;2.78;1.25;;;;;;;;;;5078806;28;20052;-62
2023/05/18 06:19:10;;;;;;;3.22;1.23;;;;;;;;;;5079063;28;20051;-61
2023/05/18 06:21:38;;;;;;;3.92;1.60;;;;;;;;;;5080577;28;20047;-61
2023/05/18 06:24:07;;;;;;;1.70;0.95;;;;;;;;;;5082500;28;20044;-60
2023/05/18 06:26:35;;;;;;;0.88;0.85;;;;;;;;;;5080021;28;20136;-60
2023/05/18 06:29:04;;;;;;;4.68;1.60;;;;;;;;;;5085421;28;20132;-65
2023/05/18 06:31:33;;;;;;;9.40;2.72;;;;;;;;;;5081706;28;20094;-62
2023/05/18 06:34:02;;;;;;;3.55;1.73;;;;;;;;;;5078888;28;20074;-59
2023/05/18 06:36:33;;;;;;;1.98;1.67;;;;;;;;;;5079602;28;20052;-64
2023/05/18 06:39:01;;;;;;;1.67;1.00;;;;;;;;;;5081450;28;20401;-61
2023/05/18 06:41:30;;;;;;;2.00;1.33;;;;;;;;;;5079625;28;20048;-61
2023/05/18 06:44:00;;;;;;;2.88;1.17;;;;;;;;;;5080775;28;20147;-62
2023/05/18 06:46:28;;;;;;;2.22;1.08;;;;;;;;;;5079998;28;20097;-61
2023/05/18 06:48:57;;;;;;;1.70;1.27;;;;;;;;;;5081007;28;20063;-61
2023/05/18 06:51:25;;;;;;;3.22;1.35;;;;;;;;;;5083447;28;20052;-61
2023/05/18 06:53:55;;;;;;;3.13;1.30;;;;;;;;;;5083795;28;20055;-61
2023/05/18 06:56:23;;;;;;;2.13;1.23;;;;;;;;;;5085747;28;20056;-61
2023/05/18 06:58:52;;;;;;;1.73;1.33;;;;;;;;;;5085073;28;20062;-61
2023/05/18 07:01:20;;;;;;;5.72;1.58;;;;;;;;;;5082839;28;20489;-62
2023/05/18 07:03:48;;;;;;;2.05;1.27;;;;;;;;;;5084683;28;20150;-61
2023/05/18 07:06:17;;;;;;;5.65;1.50;;;;;;;;;;5082471;28;20121;-63
2023/05/18 07:08:46;;;;;;;5.45;1.48;;;;;;;;;;5084619;28;20047;-61
2023/05/18 07:11:16;;;;;;;1.83;1.02;;;;;;;;;;5085898;28;20060;-61
2023/05/18 07:13:44;;;;;;;5.25;1.20;;;;;;;;;;5086177;28;20106;-61
2023/05/18 07:16:13;;;;;;;1.45;0.80;;;;;;;;;;5082955;28;20048;-61
2023/05/18 07:18:42;;;;;;;7.38;1.52;;;;;;;;;;5085949;28;20055;-61
2023/05/18 07:21:10;;;;;;;3.75;1.92;;;;;;;;;;5085920;28;20105;-59
2023/05/18 07:23:38;;;;;;;2.55;1.20;;;;;;;;;;5080009;28;20157;-61
2023/05/18 07:26:09;;;;;;;10.82;1.35;;;;;;;;;;5081662;28;20090;-62
2023/05/18 07:28:39;;;;;;;1.20;1.10;;;;;;;;;;5081087;28;20389;-61
2023/05/18 07:31:08;;;;;;;2.03;0.98;;;;;;;;;;5087125;28;20052;-64
2023/05/18 07:33:36;;;;;;;4.20;1.60;;;;;;;;;;5081550;28;20095;-65
2023/05/18 07:36:08;;;;;;;6.32;1.27;;;;;;;;;;5080579;28;20048;-61
2023/05/18 07:38:36;;;;;;;1.05;1.00;;;;;;;;;;5079833;28;20125;-62
2023/05/18 07:41:05;;;;;;;2.47;1.27;;;;;;;;;;5080590;28;20071;-64
2023/05/18 07:43:33;;;;;;;1.63;1.35;;;;;;;;;;5079886;28;20063;-64
2023/05/18 07:46:03;;;;;;;2.78;1.55;;;;;;;;;;5084970;28;20052;-61
2023/05/18 07:48:31;;;;;;;1.85;1.45;;;;;;;;;;5081747;28;20105;-61
2023/05/18 07:51:00;;;;;;;4.22;1.02;;;;;;;;;;5085422;28;20479;-64
2023/05/18 07:53:28;;;;;;;5.75;0.93;;;;;;;;;;5082030;28;20077;-64
2023/05/18 07:55:57;;;;;;;2.55;0.90;;;;;;;;;;5083516;28;20087;-62
2023/05/18 07:58:25;;;;;;;1.75;1.33;;;;;;;;;;5081634;28;20063;-60
2023/05/18 08:00:53;;;;;;;6.75;1.25;;;;;;;;;;5082077;28;20105;-61
2023/05/18 08:03:23;;;;;;;1.35;1.05;;;;;;;;;;5083882;28;20052;-60
2023/05/18 08:05:52;;;;;;;7.15;1.58;;;;;;;;;;5079946;28;20469;-63
2023/05/18 08:08:20;;;;;;;0.95;0.88;;;;;;;;;;5085285;28;20055;-60
2023/05/18 08:10:49;;;;;;;3.40;1.20;;;;;;;;;;5080310;28;20420;-60
2023/05/18 08:13:17;;;;;;;1.75;1.15;;;;;;;;;;5083674;28;20072;-61
2023/05/18 08:15:46;;;;;;;2.17;0.93;;;;;;;;;;5077513;28;20052;-61
2023/05/18 08:18:28;;;;;;;2.10;1.50;;;;;;;;;;5079472;28;20043;-63
2023/05/18 08:20:56;;;;;;;1.10;0.70;;;;;;;;;;5082208;28;20459;-63
2023/05/18 08:23:25;;;;;;;1.63;1.15;;;;;;;;;;5085269;28;20403;-63
2023/05/18 08:25:55;;;;;;;3.72;0.85;;;;;;;;;;5082357;28;20059;-60
2023/05/18 08:28:24;;;;;;;2.55;1.13;;;;;;;;;;5082862;28;20101;-60
2023/05/18 08:30:52;;;;;;;0.77;0.68;;;;;;;;;;5085872;28;20048;-61
2023/05/18 08:33:22;;;;;;;4.72;1.90;;;;;;;;;;5083269;28;20070;-60
2023/05/18 08:35:52;;;;;;;3.67;1.40;;;;;;;;;;5084433;28;20115;-63
2023/05/18 08:38:20;;;;;;;6.53;1.33;;;;;;;;;;5082839;28;20062;-59
2023/05/18 08:40:53;;;;;;;0.93;0.82;;;;;;;;;;5084365;28;20051;-59
2023/05/18 08:43:26;;;;;;;4.85;1.15;;;;;;;;;;5083074;28;20040;-59
2023/05/18 08:46:01;;;;;;;3.70;1.65;;;;;;;;;;5078613;28;20089;-60
2023/05/18 08:48:31;;;;;;;1.95;0.85;;;;;;;;;;5080477;28;20044;-61
2023/05/18 08:51:03;;;;;;;1.30;0.88;;;;;;;;;;5083804;28;20491;-60
2023/05/18 08:53:33;;;;;;;1.70;0.90;;;;;;;;;;5084238;28;20040;-60
2023/05/18 08:56:02;;;;;;;1.17;1.05;;;;;;;;;;5084033;28;20062;-62
2023/05/18 08:58:33;;;;;;;1.10;0.73;;;;;;;;;;5080736;28;20458;-59
2023/05/18 09:01:01;;;;;;;4.20;1.10;;;;;;;;;;5080625;28;20083;-60
2023/05/18 09:03:30;;;;;;;2.60;1.40;;;;;;;;;;5080775;28;20408;-62
2023/05/18 09:05:59;;;;;;;0.90;0.68;;;;;;;;;;5082658;28;20048;-61
2023/05/18 09:08:30;;;;;;;0.70;0.65;;;;;;;;;;5081780;28;20059;-60
2023/05/18 09:10:58;;;;;;;2.25;0.98;;;;;;;;;;5082519;28;20108;-59
2023/05/18 09:13:29;;;;;;;1.13;0.75;;;;;;;;;;5079257;28;20475;-60
2023/05/18 09:15:58;;;;;;;1.20;0.95;;;;;;;;;;5083192;28;20096;-61
2023/05/18 09:18:26;;;;;;;7.13;1.25;;;;;;;;;;5082207;28;20111;-63
2023/05/18 09:20:56;;;;;;;1.02;0.85;;;;;;;;;;5081539;28;20040;-61
2023/05/18 09:23:24;;;;;;;8.15;1.00;;;;;;;;;;5079122;28;20056;-62
2023/05/18 09:25:54;;;;;;;1.23;0.68;;;;;;;;;;5081872;28;20048;-63
2023/05/18 09:28:33;;;;;;;0.57;0.50;;;;;;;;;;5080799;28;20048;-64
2023/05/18 09:31:01;;;;;;;2.90;0.82;;;;;;;;;;5082133;28;20129;-60
2023/05/18 09:33:34;;;;;;;3.38;0.85;;;;;;;;;;5083112;28;20393;-64
2023/05/18 09:36:02;;;;;;;1.15;1.05;;;;;;;;;;5081142;28;20783;-60
2023/05/18 09:38:31;;;;;;;2.63;0.90;;;;;;;;;;5082418;28;20052;-61
2023/05/18 09:41:01;;;;;;;0.70;0.50;;;;;;;;;;5079205;28;20081;-62
2023/05/18 09:43:29;;;;;;;2.40;0.82;;;;;;;;;;5082684;28;20052;-60
2023/05/18 09:45:58;;;;;;;4.65;1.00;;;;;;;;;;5083801;28;20132;-60
2023/05/18 09:48:26;;;;;;;1.13;0.77;;;;;;;;;;5079759;28;20089;-60
2023/05/18 09:50:55;;;;;;;1.25;0.93;;;;;;;;;;5080227;28;20095;-62
2023/05/18 09:53:23;;;;;;;7.25;1.70;;;;;;;;;;5083761;28;20570;-61
2023/05/18 09:55:52;;;;;;;2.22;1.10;;;;;;;;;;5079695;28;20055;-60
2023/05/18 09:58:21;;;;;;;1.35;1.10;;;;;;;;;;5080805;28;20048;-61
2023/05/18 10:00:55;;;;;;;2.33;1.30;;;;;;;;;;5079418;28;20144;-60
2023/05/18 10:03:24;;;;;;;3.42;1.17;;;;;;;;;;5083763;28;20055;-63
2023/05/18 10:05:53;;;;;;;1.65;1.23;;;;;;;;;;5079581;28;20144;-62
2023/05/18 10:08:22;;;;;;;1.33;0.77;;;;;;;;;;5084126;28;20036;-60
2023/05/18 10:10:50;;;;;;;1.83;1.00;;;;;;;;;;5077595;28;20407;-61
2023/05/18 10:13:19;;;;;;;1.45;0.75;;;;;;;;;;5081862;28;20095;-61
2023/05/18 10:15:50;;;;;;;1.75;0.90;;;;;;;;;;5076726;28;20129;-62
2023/05/18 10:18:22;;;;;;;2.45;0.70;;;;;;;;;;5082419;28;20044;-60
2023/05/18 10:20:51;;;;;;;2.03;1.45;;;;;;;;;;5085599;28;20504;-61
2023/05/18 10:23:19;;;;;;;11.65;1.13;;;;;;;;;;5080240;28;20048;-64
2023/05/18 10:25:48;;;;;;;6.55;0.73;;;;;;;;;;5076964;28;20127;-65
2023/05/18 10:28:24;;;;;;;2.28;0.85;;;;;;;;;;5083778;28;20047;-61
2023/05/18 10:30:55;;;;;;;0.77;0.65;;;;;;;;;;5078126;28;20048;-63
2023/05/18 10:33:24;;;;;;;1.65;0.70;;;;;;;;;;5081320;28;20549;-62
2023/05/18 10:35:58;;;;;;;4.63;0.70;;;;;;;;;;5080461;28;20052;-65
2023/05/18 10:38:27;;;;;;;2.22;0.93;;;;;;;;;;5081760;28;20093;-62
2023/05/18 10:40:56;;;;;;;4.25;1.02;;;;;;;;;;5075642;28;20485;-62
2023/05/18 10:43:26;;;;;;;1.95;0.50;;;;;;;;;;5082081;28;20040;-62
2023/05/18 10:45:57;;;;;;;1.50;0.70;;;;;;;;;;5076763;28;20557;-61
2023/05/18 10:48:26;;;;;;;0.95;0.68;;;;;;;;;;5080257;28;20048;-65
2023/05/18 10:50:55;;;;;;;1.48;0.60;;;;;;;;;;5079484;28;20628;-65
2023/05/18 10:53:25;;;;;;;1.80;0.70;;;;;;;;;;5080751;28;20445;-61
2023/05/18 10:55:54;;;;;;;2.10;1.33;;;;;;;;;;5078789;28;20044;-63
2023/05/18 10:58:24;;;;;;;3.67;1.67;;;;;;;;;;5079730;28;20071;-62
2023/05/18 11:00:53;;;;;;;0.88;0.70;;;;;;;;;;5082491;28;20087;-63
2023/05/18 11:03:24;;;;;;;1.02;0.88;;;;;;;;;;5079753;28;20101;-62
2023/05/18 11:06:03;;;;;;;1.52;0.57;;;;;;;;;;5081406;28;20101;-63
2023/05/18 11:08:31;;;;;;;1.88;1.15;;;;;;;;;;5080910;28;20040;-62
2023/05/18 11:11:02;;;;;;;0.98;0.55;;;;;;;;;;5076574;28;20048;-62
2023/05/18 11:13:31;;;;;;;2.53;0.70;;;;;;;;;;5080455;28;20055;-61
2023/05/18 11:16:06;;;;;;;1.00;0.80;;;;;;;;;;5080565;28;20061;-63
2023/05/18 11:18:37;;;;;;;1.23;0.70;;;;;;;;;;5083127;28;20506;-63
2023/05/18 11:21:18;;;;;;;3.85;0.50;;;;;;;;;;5077381;28;20412;-65
2023/05/18 11:24:02;;;;;;;2.60;1.25;;;;;;;;;;5077330;28;20040;-66
2023/05/18 11:26:30;;;;;;;0.82;0.82;;;;;;;;;;5079128;28;20081;-63
2023/05/18 11:28:59;;;;;;;2.88;0.70;;;;;;;;;;5072355;28;20089;-65
2023/05/18 11:31:44;;;;;;;1.27;0.93;;;;;;;;;;5080489;28;20508;-66
2023/05/18 11:34:31;;;;;;;1.83;0.98;;;;;;;;;;5079480;28;20151;-62
2023/05/18 11:37:00;;;;;;;2.72;0.77;;;;;;;;;;5084316;28;20047;-63
2023/05/18 11:39:29;;;;;;;2.35;0.80;;;;;;;;;;5080906;28;20048;-62
2023/05/18 11:42:01;;;;;;;8.52;0.70;;;;;;;;;;5080936;28;20098;-62
2023/05/18 11:44:30;;;;;;;1.88;0.77;;;;;;;;;;5083465;28;20349;-64
2023/05/18 11:47:02;;;;;;;1.65;0.55;;;;;;;;;;5081514;28;20177;-64
2023/05/18 11:49:32;;;;;;;0.55;0.55;;;;;;;;;;5081086;28;20062;-64
2023/05/18 11:52:06;;;;;;;0.57;0.57;;;;;;;;;;5084664;28;20540;-63
2023/05/18 11:54:35;;;;;;;1.80;0.73;;;;;;;;;;5082970;28;20493;-62
2023/05/18 11:57:03;;;;;;;0.77;0.60;;;;;;;;;;5081750;28;20083;-63
2023/05/18 11:59:32;;;;;;;1.33;0.80;;;;;;;;;;5084624;28;20147;-65
2023/05/18 12:02:02;;;;;;;3.30;0.90;;;;;;;;;;5082154;28;20454;-63
2023/05/18 12:04:32;;;;;;;0.68;0.57;;;;;;;;;;5081519;28;20047;-65
2023/05/18 12:07:05;;;;;;;0.82;0.40;;;;;;;;;;5079271;28;20147;-60
2023/05/18 12:09:35;;;;;;;1.15;0.57;;;;;;;;;;5082206;28;20546;-62
2023/05/18 12:12:04;;;;;;;2.00;0.77;;;;;;;;;;5077602;28;20073;-65
2023/05/18 12:14:33;;;;;;;0.80;0.55;;;;;;;;;;5077223;28;20109;-61
2023/05/18 12:17:01;;;;;;;1.30;0.88;;;;;;;;;;5082074;28;20098;-62
2023/05/18 12:19:30;;;;;;;1.27;0.57;;;;;;;;;;5078970;28;20209;-62
2023/05/18 12:21:59;;;;;;;1.63;0.70;;;;;;;;;;5082704;28;20040;-63
2023/05/18 12:24:28;;;;;;;1.13;0.70;;;;;;;;;;5079221;28;20713;-62
2023/05/18 12:27:03;;;;;;;5.07;0.80;;;;;;;;;;5082514;28;20455;-62
2023/05/18 12:29:35;;;;;;;6.20;0.50;;;;;;;;;;5079835;28;20378;-63
2023/05/18 12:32:06;;;;;;;0.98;0.63;;;;;;;;;;5080360;28;20101;-62
2023/05/18 12:34:34;;;;;;;1.45;0.73;;;;;;;;;;5083569;28;20086;-63
2023/05/18 12:37:03;;;;;;;1.92;1.30;;;;;;;;;;5082747;28;20047;-63
2023/05/18 12:39:31;;;;;;;0.70;0.50;;;;;;;;;;5081375;28;20044;-62
2023/05/18 12:42:11;;;;;;;0.90;0.75;;;;;;;;;;5081761;28;20124;-61
2023/05/18 12:44:39;;;;;;;2.78;1.25;;;;;;;;;;5082341;28;20053;-62
2023/05/18 12:47:08;;;;;;;2.42;0.90;;;;;;;;;;5082021;28;20059;-63
2023/05/18 12:49:37;;;;;;;1.45;0.70;;;;;;;;;;5080725;28;20072;-60
2023/05/18 12:52:10;;;;;;;0.90;0.63;;;;;;;;;;5085297;28;20044;-63
2023/05/18 12:54:53;;;;;;;1.38;0.50;;;;;;;;;;5082381;28;20047;-62
2023/05/18 12:57:25;;;;;;;1.88;1.00;;;;;;;;;;5078449;28;20155;-63
2023/05/18 12:59:54;;;;;;;1.38;0.90;;;;;;;;;;5083359;28;20503;-62
2023/05/18 13:02:30;;;;;;;2.13;1.00;;;;;;;;;;5086272;28;20052;-62
2023/05/18 13:05:06;;;;;;;4.03;0.77;;;;;;;;;;5079324;28;21419;-63
2023/05/18 13:07:38;;;;;;;1.13;0.77;;;;;;;;;;5081047;28;20521;-67
2023/05/18 13:10:07;;;;;;;2.08;0.60;;;;;;;;;;5084854;28;20096;-64
2023/05/18 13:12:39;;;;;;;0.70;0.47;;;;;;;;;;5081472;28;20127;-63
2023/05/18 13:15:23;;;;;;;0.70;0.70;;;;;;;;;;5081627;28;20549;-68
2023/05/18 13:17:58;;;;;;;1.15;0.55;;;;;;;;;;5083577;28;20063;-67
2023/05/18 13:20:33;;;;;;;1.13;0.60;;;;;;;;;;5083391;28;20044;-69
2023/05/18 13:23:05;;;;;;;1.95;1.00;;;;;;;;;;5081828;28;20059;-66
2023/05/18 13:25:33;;;;;;;3.20;0.98;;;;;;;;;;5080669;28;20582;-66
2023/05/18 13:28:03;;;;;;;0.88;0.50;;;;;;;;;;5078940;28;20485;-67
2023/05/18 13:30:32;;;;;;;2.47;0.90;;;;;;;;;;5081265;28;20500;-66
2023/05/18 13:33:00;;;;;;;5.10;1.10;;;;;;;;;;5078275;28;20131;-67
2023/05/18 13:35:29;;;;;;;8.02;1.80;;;;;;;;;;5082148;28;20134;-67
2023/05/18 13:37:58;;;;;;;2.05;1.05;;;;;;;;;;5078230;28;20052;-66
2023/05/18 13:40:26;;;;;;;1.17;0.70;;;;;;;;;;5078868;28;20075;-66
2023/05/18 13:42:55;;;;;;;1.60;1.02;;;;;;;;;;5082605;28;20056;-67
2023/05/18 13:45:25;;;;;;;1.25;0.82;;;;;;;;;;5083509;28;20089;-67
2023/05/18 13:47:53;;;;;;;3.42;0.93;;;;;;;;;;5081441;28;20048;-67
2023/05/18 13:50:22;;;;;;;1.83;1.05;;;;;;;;;;5080955;28;20138;-66
2023/05/18 13:52:51;;;;;;;1.50;0.68;;;;;;;;;;5081109;28;20519;-67
2023/05/18 13:55:19;;;;;;;0.80;0.63;;;;;;;;;;5081656;28;20059;-67
2023/05/18 13:57:48;;;;;;;1.45;0.77;;;;;;;;;;5082770;28;20055;-66
2023/05/18 14:00:19;;;;;;;1.75;1.00;;;;;;;;;;5083583;28;20047;-67
2023/05/18 14:02:49;;;;;;;1.60;0.85;;;;;;;;;;5079846;28;20135;-67
2023/05/18 14:05:18;;;;;;;0.88;0.45;;;;;;;;;;5077060;28;20051;-67
2023/05/18 14:07:47;;;;;;;2.65;1.48;;;;;;;;;;5082785;28;20055;-67
2023/05/18 14:10:16;;;;;;;4.45;1.10;;;;;;;;;;5083386;28;20048;-70
2023/05/18 14:12:44;;;;;;;1.25;0.70;;;;;;;;;;5083300;28;20583;-67
2023/05/18 14:15:13;;;;;;;0.75;0.65;;;;;;;;;;5080023;28;20177;-67
2023/05/18 14:17:42;;;;;;;0.60;0.60;;;;;;;;;;5079381;28;20483;-68
2023/05/18 14:20:13;;;;;;;2.63;1.17;;;;;;;;;;5081831;28;20466;-68
2023/05/18 14:22:41;;;;;;;5.53;0.82;;;;;;;;;;5079637;28;20435;-67
2023/05/18 14:25:10;;;;;;;2.88;0.80;;;;;;;;;;5079751;28;20105;-67
2023/05/18 14:27:38;;;;;;;1.42;0.93;;;;;;;;;;5080814;28;20036;-67
2023/05/18 14:30:07;;;;;;;0.70;0.70;;;;;;;;;;5078337;28;20051;-67
2023/05/18 14:32:36;;;;;;;1.23;0.60;;;;;;;;;;5077932;28;20088;-67
2023/05/18 14:35:05;;;;;;;0.88;0.60;;;;;;;;;;5081059;28;20052;-67
2023/05/18 14:37:35;;;;;;;0.93;0.50;;;;;;;;;;5082255;28;20044;-66
2023/05/18 14:40:05;;;;;;;5.90;1.02;;;;;;;;;;5081624;28;20104;-68
2023/05/18 14:42:35;;;;;;;0.75;0.65;;;;;;;;;;5082150;28;20040;-67
2023/05/18 14:45:04;;;;;;;3.45;0.80;;;;;;;;;;5084313;28;20042;-67
2023/05/18 14:47:32;;;;;;;2.85;0.70;;;;;;;;;;5080477;28;20047;-68
2023/05/18 14:50:01;;;;;;;0.88;0.70;;;;;;;;;;5081440;28;20044;-67
2023/05/18 14:52:29;;;;;;;2.60;0.93;;;;;;;;;;5084195;28;20121;-67
2023/05/18 14:54:59;;;;;;;0.43;0.38;;;;;;;;;;5081820;28;20553;-66
2023/05/18 14:57:27;;;;;;;1.52;0.57;;;;;;;;;;5081688;28;20195;-67